• Join FlightAware (Why Join?)
  • Login
  • US Flag 
Trick or treat! (Boo!!) 
11:51AM EDT


 

Airport Tracker/Info


-or-


 

Live Flight TrackerFlight Track Log ✈ N589H ✈ 23-Mar-2014 ✈ KPIE - KORL

Flight Track Log - Related Links

Times and Time Zones

All times are in EDT time to prevent confusion due to time zone crossing. See the N589H flight status page for this flight to view local times or setup timezone preferences in your user account.

Time Position Orientation Groundspeed Altitude Reporting Facility
EDT Latitude Longitude Course Direction KTS MPH feet Rate Location/Type
06:18PM 27.9000 -82.6833 221° Southwest 170 196 700  Level Tampa TRACON
06:19PM 27.8667 -82.7167 221° Southwest 169 194 1,700 1,320 Climbing Tampa TRACON
06:20PM 27.8667 -82.7667 270° West 170 196 3,000 600 Climbing Tampa TRACON
06:21PM 27.9333 -82.7667 360° North 252 290 3,000  Level Tampa TRACON
06:22PM 27.9833 -82.7167 41° Northeast 284 327 3,000  Level Tampa TRACON
06:23PM 27.9833 -82.6333 90° East 285 328 3,000  Level Tampa TRACON
06:24PM 27.9667 -82.5500 103° East 287 330 3,000  Level Tampa TRACON
06:25PM 27.9667 -82.4667 90° East 280 322 3,000 420 Level Tampa TRACON
06:26PM 27.9667 -82.3833 90° East 286 329 3,800 420 Climbing Tampa TRACON
06:27PM 28.0000 -82.3000 66° East 270 311 4,000 360 Climbing Tampa TRACON
06:28PM 28.0333 -82.2333 60° Northeast 286 329 4,500 840 Climbing Tampa TRACON
06:29PM 28.0833 -82.1667 50° Northeast 277 319 5,600 660 Climbing Tampa TRACON
06:31PM 28.1833 -81.9667 60° Northeast 300 345 7,000 360 Climbing Orlando TRACON
06:32PM 28.2333 -81.8833 56° Northeast 313 360 7,000 -480 Level Orlando TRACON
06:33PM 28.3000 -81.8167 41° Northeast 301 346 6,100 -900 Descending Orlando TRACON
06:34PM 28.3500 -81.7500 50° Northeast 274 315 5,200 -960 Descending Orlando TRACON
06:35PM 28.4000 -81.7000 41° Northeast 268 308 4,300 -1,320 Descending Orlando TRACON
06:36PM 28.4500 -81.6333 50° Northeast 266 306 2,700 -1,200 Descending Orlando TRACON
06:37PM 28.5000 -81.5833 41° Northeast 247 284 2,000 -360 Descending Orlando TRACON
06:38PM 28.5500 -81.5333 41° Northeast 212 244 2,000  Level Orlando TRACON
06:39PM 28.5833 -81.4667 60° Northeast 225 259 2,000 -240 Level Orlando TRACON
06:40PM 28.6000 -81.4000 74° East 226 260 1,600 -240 Descending Orlando TRACON
06:41PM 28.6167 -81.3333 74° East 198 228 1,600 -300 Level Orlando TRACON
06:42PM 28.6000 -81.3000 120° Southeast 149 171 1,000 -540 Descending Orlando TRACON
06:43PM 28.5500 -81.3000 180° South 146 168 500 -540 Descending Orlando TRACON
06:45PM 28.5455 -81.3329 221° Southwest  Level Estimated